Time,TemperatureF,DewpointF,PressureIn,WindDirection,WindDirectionDegrees,WindSpeedMPH,WindSpeedGustMPH,Humidity,HourlyPrecipIn,Conditions,Clouds,dailyrainin,SoftwareType,DateUTC
2013-07-31 00:04:00,60.8,38.7,30.10,ESE,113,0.0,0.0,44,0.00,,,0.00,WUHU216HW,2013-07-31 06:04:00,
2013-07-31 00:09:00,60.9,38.7,30.10,SE,135,0.0,0.0,44,0.00,,,0.00,WUHU216HW,2013-07-31 06:09:00,
2013-07-31 00:14:00,60.9,38.7,30.10,SE,135,0.0,0.0,44,0.00,,,0.00,WUHU216HW,2013-07-31 06:14:00,
2013-07-31 00:19:00,60.9,38.7,30.10,SE,135,0.0,0.0,44,0.00,,,0.00,WUHU216HW,2013-07-31 06:19:00,
2013-07-31 00:24:00,60.9,38.7,30.10,SE,135,0.0,0.0,44,0.00,,,0.00,WUHU216HW,2013-07-31 06:24:00,
2013-07-31 00:29:00,61.5,39.2,30.10,SE,135,0.0,0.0,44,0.00,,,0.00,WUHU216HW,2013-07-31 06:29:00,
2013-07-31 00:35:00,61.3,39.1,30.10,SE,135,0.0,0.0,44,0.00,,,0.00,WUHU216HW,2013-07-31 06:35:00,
2013-07-31 00:40:00,60.6,38.4,30.11,SE,135,0.0,0.0,44,0.00,,,0.00,WUHU216HW,2013-07-31 06:40:00,
2013-07-31 00:45:00,60.4,38.8,30.11,South,180,0.0,2.2,45,0.00,,,0.00,WUHU216HW,2013-07-31 06:45:00,
2013-07-31 00:50:00,59.9,38.3,30.11,South,180,0.0,2.2,45,0.00,,,0.00,WUHU216HW,2013-07-31 06:50:00,
2013-07-31 00:55:00,59.5,38.6,30.11,South,180,0.0,0.0,46,0.00,,,0.00,WUHU216HW,2013-07-31 06:55:00,
2013-07-31 01:00:00,59.1,38.3,30.11,South,180,0.0,0.0,46,0.00,,,0.00,WUHU216HW,2013-07-31 07:00:00,
2013-07-31 01:05:00,59.0,38.1,30.11,South,180,0.0,0.0,46,0.00,,,0.00,WUHU216HW,2013-07-31 07:05:00,
2013-07-31 01:10:00,57.9,38.3,30.11,South,180,0.0,0.0,48,0.00,,,0.00,WUHU216HW,2013-07-31 07:10:00,
2013-07-31 01:15:00,57.3,37.8,30.11,South,180,0.0,0.0,48,0.00,,,0.00,WUHU216HW,2013-07-31 07:15:00,
2013-07-31 01:20:00,57.0,38.0,30.11,South,180,0.0,0.0,49,0.00,,,0.00,WUHU216HW,2013-07-31 07:20:00,
2013-07-31 01:25:00,57.0,38.0,30.11,South,180,0.0,0.0,49,0.00,,,0.00,WUHU216HW,2013-07-31 07:25:00,
2013-07-31 01:31:00,56.8,38.4,30.12,South,180,0.0,0.0,50,0.00,,,0.00,WUHU216HW,2013-07-31 07:31:00,
2013-07-31 01:36:00,57.0,38.6,30.12,South,180,0.0,0.0,50,0.00,,,0.00,WUHU216HW,2013-07-31 07:36:00,
2013-07-31 01:41:00,57.0,39.1,30.11,South,180,3.5,3.5,51,0.00,,,0.00,WUHU216HW,2013-07-31 07:41:00,
2013-07-31 01:46:00,57.3,39.0,30.12,SSW,203,2.0,3.5,50,0.00,,,0.00,WUHU216HW,2013-07-31 07:46:00,
2013-07-31 01:51:00,57.7,38.7,30.11,SSW,203,0.0,3.3,49,0.00,,,0.00,WUHU216HW,2013-07-31 07:51:00,
2013-07-31 01:56:00,57.5,38.5,30.11,SSW,203,0.0,2.0,49,0.00,,,0.00,WUHU216HW,2013-07-31 07:56:00,
2013-07-31 02:01:00,57.0,38.0,30.12,SSW,203,0.0,0.0,49,0.00,,,0.00,WUHU216HW,2013-07-31 08:01:00,
2013-07-31 02:06:00,56.6,38.3,30.12,SSW,203,0.0,0.0,50,0.00,,,0.00,WUHU216HW,2013-07-31 08:06:00,
2013-07-31 02:11:00,56.4,38.1,30.12,SSW,203,0.0,0.0,50,0.00,,,0.00,WUHU216HW,2013-07-31 08:11:00,
2013-07-31 02:16:00,56.1,38.2,30.12,SSW,203,2.0,2.0,51,0.00,,,0.00,WUHU216HW,2013-07-31 08:16:00,
2013-07-31 02:21:00,56.4,38.5,30.12,SSW,203,0.0,2.0,51,0.00,,,0.00,WUHU216HW,2013-07-31 08:21:00,
2013-07-31 02:26:00,57.0,38.6,30.12,SSW,203,0.0,1.7,50,0.00,,,0.00,WUHU216HW,2013-07-31 08:26:00,
2013-07-31 02:31:00,57.0,38.6,30.12,SSW,203,0.0,0.0,50,0.00,,,0.00,WUHU216HW,2013-07-31 08:31:00,
2013-07-31 02:36:00,56.8,38.4,30.12,SSW,203,0.0,1.5,50,0.00,,,0.00,WUHU216HW,2013-07-31 08:36:00,
2013-07-31 02:41:00,56.8,38.4,30.12,SSW,203,0.0,1.7,50,0.00,,,0.00,WUHU216HW,2013-07-31 08:41:00,
2013-07-31 02:47:00,56.3,37.9,30.11,SSW,203,0.0,1.7,50,0.00,,,0.00,WUHU216HW,2013-07-31 08:47:00,
2013-07-31 02:52:00,55.9,37.8,30.11,SSW,203,0.0,0.0,51,0.00,,,0.00,WUHU216HW,2013-07-31 08:52:00,
2013-07-31 02:57:00,55.2,37.3,30.11,SSW,203,0.0,0.0,51,0.00,,,0.00,WUHU216HW,2013-07-31 08:57:00,
2013-07-31 03:02:00,55.0,37.6,30.11,SSW,203,2.4,2.4,52,0.00,,,0.00,WUHU216HW,2013-07-31 09:02:00,
2013-07-31 03:07:00,54.6,37.7,30.12,SSW,203,2.4,2.4,53,0.00,,,0.00,WUHU216HW,2013-07-31 09:07:00,
2013-07-31 03:12:00,54.6,38.2,30.12,SSW,203,1.7,2.6,54,0.00,,,0.00,WUHU216HW,2013-07-31 09:12:00,
2013-07-31 03:17:00,55.0,38.7,30.12,SSW,203,1.3,2.6,54,0.00,,,0.00,WUHU216HW,2013-07-31 09:17:00,
2013-07-31 03:22:00,55.5,38.6,30.11,SSW,203,1.7,2.6,53,0.00,,,0.00,WUHU216HW,2013-07-31 09:22:00,
2013-07-31 03:27:00,55.5,38.6,30.11,SSW,203,1.7,2.4,53,0.00,,,0.00,WUHU216HW,2013-07-31 09:27:00,
2013-07-31 03:32:00,55.4,38.4,30.11,SSW,203,1.5,2.4,53,0.00,,,0.00,WUHU216HW,2013-07-31 09:32:00,
2013-07-31 03:37:00,55.4,38.4,30.11,SSW,203,3.1,3.1,53,0.00,,,0.00,WUHU216HW,2013-07-31 09:37:00,
2013-07-31 03:42:00,55.9,38.9,30.11,SSW,203,0.8,3.1,53,0.00,,,0.00,WUHU216HW,2013-07-31 09:42:00,
2013-07-31 03:47:00,55.7,38.8,30.11,SSW,203,0.0,2.2,53,0.00,,,0.00,WUHU216HW,2013-07-31 09:47:00,
2013-07-31 03:52:00,55.2,38.2,30.11,SSW,203,0.0,1.7,53,0.00,,,0.00,WUHU216HW,2013-07-31 09:52:00,
2013-07-31 03:57:00,54.5,37.6,30.12,SSW,203,0.0,0.0,53,0.00,,,0.00,WUHU216HW,2013-07-31 09:57:00,
2013-07-31 04:02:00,54.1,37.7,30.11,SSW,203,0.0,0.0,54,0.00,,,0.00,WUHU216HW,2013-07-31 10:02:00,
2013-07-31 04:07:00,53.7,37.9,30.11,SSW,203,2.0,2.0,55,0.00,,,0.00,WUHU216HW,2013-07-31 10:07:00,
2013-07-31 04:12:00,53.7,37.9,30.12,SSW,203,1.7,2.2,55,0.00,,,0.00,WUHU216HW,2013-07-31 10:12:00,
2013-07-31 04:17:00,53.7,37.9,30.12,SSW,203,1.1,2.2,55,0.00,,,0.00,WUHU216HW,2013-07-31 10:17:00,
2013-07-31 04:23:00,53.6,38.2,30.11,SSW,203,0.0,2.4,56,0.00,,,0.00,WUHU216HW,2013-07-31 10:23:00,
2013-07-31 04:28:00,53.6,38.6,30.12,SSW,203,0.0,2.4,57,0.00,,,0.00,WUHU216HW,2013-07-31 10:28:00,
2013-07-31 04:33:00,53.9,39.4,30.12,SSW,203,0.0,0.0,58,0.00,,,0.00,WUHU216HW,2013-07-31 10:33:00,
2013-07-31 04:38:00,53.7,39.7,30.12,SSW,203,0.0,0.0,59,0.00,,,0.00,WUHU216HW,2013-07-31 10:38:00,
2013-07-31 04:43:00,53.7,39.7,30.12,SSW,203,0.0,0.0,59,0.00,,,0.00,WUHU216HW,2013-07-31 10:43:00,
2013-07-31 04:48:00,53.7,39.7,30.12,SSW,203,0.0,0.0,59,0.00,,,0.00,WUHU216HW,2013-07-31 10:48:00,
2013-07-31 04:53:00,53.7,39.7,30.12,SSW,203,0.0,0.0,59,0.00,,,0.00,WUHU216HW,2013-07-31 10:53:00,
2013-07-31 04:58:00,53.7,39.7,30.12,SSW,203,0.0,0.0,59,0.00,,,0.00,WUHU216HW,2013-07-31 10:58:00,
2013-07-31 05:03:00,53.7,39.7,30.12,SSW,203,0.0,0.0,59,0.00,,,0.00,WUHU216HW,2013-07-31 11:03:00,
2013-07-31 05:08:00,53.7,40.2,30.12,SSW,203,0.0,0.0,60,0.00,,,0.00,WUHU216HW,2013-07-31 11:08:00,
2013-07-31 05:13:00,53.7,40.2,30.12,SSW,203,0.0,0.0,60,0.00,,,0.00,WUHU216HW,2013-07-31 11:13:00,
2013-07-31 05:18:00,53.4,39.4,30.12,SSW,203,0.0,0.0,59,0.00,,,0.00,WUHU216HW,2013-07-31 11:18:00,
2013-07-31 05:23:00,53.4,39.4,30.12,SSW,203,0.0,0.0,59,0.00,,,0.00,WUHU216HW,2013-07-31 11:23:00,
2013-07-31 05:29:00,53.2,39.2,30.12,SSW,203,0.0,0.0,59,0.00,,,0.00,WUHU216HW,2013-07-31 11:29:00,
2013-07-31 05:34:00,53.2,39.2,30.12,SSW,203,0.0,0.0,59,0.00,,,0.00,WUHU216HW,2013-07-31 11:34:00,
2013-07-31 05:39:00,53.2,39.2,30.12,SSW,203,0.0,0.0,59,0.00,,,0.00,WUHU216HW,2013-07-31 11:39:00,
2013-07-31 05:44:00,52.8,38.9,30.12,SSW,203,0.0,0.0,59,0.00,,,0.00,WUHU216HW,2013-07-31 11:44:00,
2013-07-31 05:49:00,52.5,38.5,30.12,SSW,203,0.0,0.0,59,0.00,,,0.00,WUHU216HW,2013-07-31 11:49:00,
2013-07-31 05:54:00,52.3,38.8,30.12,SSW,203,0.0,0.0,60,0.00,,,0.00,WUHU216HW,2013-07-31 11:54:00,
2013-07-31 05:59:00,52.1,38.6,30.12,SSW,203,0.0,0.0,60,0.00,,,0.00,WUHU216HW,2013-07-31 11:59:00,
2013-07-31 06:04:00,52.3,38.8,30.12,SSW,203,0.0,0.0,60,0.00,,,0.00,WUHU216HW,2013-07-31 12:04:00,
2013-07-31 06:09:00,52.3,38.8,30.12,SSW,203,0.0,0.0,60,0.00,,,0.00,WUHU216HW,2013-07-31 12:09:00,
2013-07-31 06:14:00,52.1,39.0,30.12,SSW,203,0.0,0.0,61,0.00,,,0.00,WUHU216HW,2013-07-31 12:14:00,
2013-07-31 06:19:00,51.9,39.4,30.12,SSW,203,0.0,0.0,62,0.00,,,0.00,WUHU216HW,2013-07-31 12:19:00,
2013-07-31 06:24:00,52.1,39.4,30.12,SSW,203,0.0,0.0,62,0.00,,,0.00,WUHU216HW,2013-07-31 12:24:00,
2013-07-31 06:29:00,51.9,39.2,30.12,SSW,203,0.0,0.0,62,0.00,,,0.00,WUHU216HW,2013-07-31 12:29:00,
2013-07-31 06:34:00,51.8,39.5,30.12,SSW,203,0.0,0.0,63,0.00,,,0.00,WUHU216HW,2013-07-31 12:34:00,
2013-07-31 06:39:00,51.6,39.7,30.12,SSW,203,0.0,0.0,64,0.00,,,0.00,WUHU216HW,2013-07-31 12:39:00,
2013-07-31 06:44:00,51.6,39.7,30.12,SSW,203,0.0,0.0,64,0.00,,,0.00,WUHU216HW,2013-07-31 12:44:00,
2013-07-31 06:49:00,51.4,39.7,30.12,SSW,203,0.0,0.0,64,0.00,,,0.00,WUHU216HW,2013-07-31 12:49:00,
2013-07-31 06:54:00,51.6,39.7,30.12,SSW,203,0.0,0.0,64,0.00,,,0.00,WUHU216HW,2013-07-31 12:54:00,
2013-07-31 06:59:00,51.6,40.1,30.12,SSW,203,0.0,0.0,65,0.00,,,0.00,WUHU216HW,2013-07-31 12:59:00,
2013-07-31 07:04:00,51.6,40.6,30.12,SSW,203,0.0,0.0,66,0.00,,,0.00,WUHU216HW,2013-07-31 13:04:00,
2013-07-31 07:10:00,51.4,40.4,30.12,SSW,203,0.0,0.0,66,0.00,,,0.00,WUHU216HW,2013-07-31 13:10:00,
2013-07-31 07:15:00,51.4,40.4,30.12,SSW,203,0.0,0.0,66,0.00,,,0.00,WUHU216HW,2013-07-31 13:15:00,
2013-07-31 07:20:00,51.6,41.4,30.12,SSW,203,0.0,0.0,68,0.00,,,0.00,WUHU216HW,2013-07-31 13:20:00,
2013-07-31 07:25:00,51.6,41.4,30.12,SSW,203,0.0,0.0,68,0.00,,,0.00,WUHU216HW,2013-07-31 13:25:00,
2013-07-31 07:30:00,51.6,41.4,30.12,SSW,203,0.0,0.0,68,0.00,,,0.00,WUHU216HW,2013-07-31 13:30:00,
2013-07-31 07:35:00,51.4,41.6,30.13,SSW,203,0.0,0.0,69,0.00,,,0.00,WUHU216HW,2013-07-31 13:35:00,
2013-07-31 07:40:00,51.4,42.2,30.12,SSW,203,0.0,0.0,70,0.00,,,0.00,WUHU216HW,2013-07-31 13:40:00,
2013-07-31 07:45:00,51.4,42.0,30.13,SSW,203,0.0,0.0,70,0.00,,,0.00,WUHU216HW,2013-07-31 13:45:00,
2013-07-31 07:50:00,51.6,42.6,30.13,SSW,203,0.0,0.0,71,0.00,,,0.00,WUHU216HW,2013-07-31 13:50:00,
2013-07-31 07:55:00,51.6,42.6,30.13,SSW,203,0.0,0.0,71,0.00,,,0.00,WUHU216HW,2013-07-31 13:55:00,
2013-07-31 08:00:00,51.6,42.2,30.13,SSW,203,0.0,0.0,70,0.00,,,0.00,WUHU216HW,2013-07-31 14:00:00,
2013-07-31 08:05:00,51.6,42.2,30.12,SSW,203,0.0,0.0,70,0.00,,,0.00,WUHU216HW,2013-07-31 14:05:00,
2013-07-31 08:10:00,51.8,42.7,30.13,SSW,203,0.0,0.0,71,0.00,,,0.00,WUHU216HW,2013-07-31 14:10:00,
2013-07-31 08:15:00,51.9,42.9,30.13,SSW,203,0.0,0.0,71,0.00,,,0.00,WUHU216HW,2013-07-31 14:15:00,
2013-07-31 08:20:00,51.8,43.1,30.13,SSW,203,0.0,0.0,72,0.00,,,0.00,WUHU216HW,2013-07-31 14:20:00,
2013-07-31 08:25:00,51.9,43.2,30.13,SSW,203,0.0,0.0,72,0.00,,,0.00,WUHU216HW,2013-07-31 14:25:00,
2013-07-31 08:30:00,52.1,43.7,30.13,SSW,203,0.0,0.0,73,0.00,,,0.00,WUHU216HW,2013-07-31 14:30:00,
2013-07-31 08:31:00,52.1,43.7,30.13,SSW,203,0.0,0.0,73,0.00,,,0.00,WUHU216HW,2013-07-31 14:31:00,
2013-07-31 08:36:00,52.5,44.1,30.13,SSW,203,0.0,0.0,73,0.00,,,0.00,WUHU216HW,2013-07-31 14:36:00,
2013-07-31 08:41:00,53.2,44.7,30.13,SSW,203,0.0,0.0,73,0.00,,,0.00,WUHU216HW,2013-07-31 14:41:00,
2013-07-31 08:46:00,54.3,45.4,30.13,SSW,203,0.0,0.0,72,0.00,,,0.00,WUHU216HW,2013-07-31 14:46:00,
2013-07-31 08:51:00,55.9,46.5,30.14,SSW,203,0.0,0.0,70,0.00,,,0.00,WUHU216HW,2013-07-31 14:51:00,
2013-07-31 08:56:00,57.0,46.1,30.13,SSW,203,0.0,0.0,67,0.00,,,0.00,WUHU216HW,2013-07-31 14:56:00,
2013-07-31 09:01:00,58.2,46.5,30.13,SSW,203,0.0,0.0,65,0.00,,,0.00,WUHU216HW,2013-07-31 15:01:00,
2013-07-31 09:06:00,59.5,46.9,30.13,SSW,203,0.0,0.0,63,0.00,,,0.00,WUHU216HW,2013-07-31 15:06:00,
2013-07-31 09:11:00,60.4,46.9,30.14,SSW,203,0.0,0.0,61,0.00,,,0.00,WUHU216HW,2013-07-31 15:11:00,
2013-07-31 09:16:00,61.1,47.2,30.13,SSW,203,0.0,0.0,60,0.00,,,0.00,WUHU216HW,2013-07-31 15:16:00,
2013-07-31 09:21:00,62.2,47.2,30.13,SSW,203,0.0,0.0,58,0.00,,,0.00,WUHU216HW,2013-07-31 15:21:00,
2013-07-31 09:27:00,63.1,47.1,30.14,SSW,203,0.0,0.0,56,0.00,,,0.00,WUHU216HW,2013-07-31 15:27:00,
2013-07-31 09:32:00,64.2,47.5,30.14,SSW,203,0.0,0.0,55,0.00,,,0.00,WUHU216HW,2013-07-31 15:32:00,
2013-07-31 09:37:00,64.9,47.8,30.14,SSW,203,0.0,0.0,54,0.00,,,0.00,WUHU216HW,2013-07-31 15:37:00,
2013-07-31 09:42:00,66.0,48.3,30.14,SSW,203,0.0,0.0,53,0.00,,,0.00,WUHU216HW,2013-07-31 15:42:00,
2013-07-31 09:47:00,66.7,48.0,30.14,SSW,203,0.0,0.0,51,0.00,,,0.00,WUHU216HW,2013-07-31 15:47:00,
2013-07-31 09:52:00,67.6,47.8,30.14,SSW,203,0.0,0.0,49,0.00,,,0.00,WUHU216HW,2013-07-31 15:52:00,
2013-07-31 09:57:00,68.1,48.3,30.14,ESE,113,0.0,0.0,49,0.00,,,0.00,WUHU216HW,2013-07-31 15:57:00,
2013-07-31 10:02:00,69.0,49.1,30.14,NNE,23,0.0,0.0,49,0.00,,,0.00,WUHU216HW,2013-07-31 16:02:00,
2013-07-31 10:07:00,69.6,49.0,30.13,NE,45,1.7,4.0,48,0.00,,,0.00,WUHU216HW,2013-07-31 16:07:00,
2013-07-31 10:12:00,70.1,49.4,30.13,NE,45,0.0,4.0,48,0.00,,,0.00,WUHU216HW,2013-07-31 16:12:00,
2013-07-31 10:17:00,70.3,49.0,30.13,NE,45,0.0,4.4,47,0.00,,,0.00,WUHU216HW,2013-07-31 16:17:00,
2013-07-31 10:22:00,70.5,49.2,30.13,NE,45,6.7,6.7,47,0.00,,,0.00,WUHU216HW,2013-07-31 16:22:00,
2013-07-31 10:27:00,70.8,49.5,30.12,NE,45,2.9,6.7,47,0.00,,,0.00,WUHU216HW,2013-07-31 16:27:00,
2013-07-31 10:32:00,71.4,49.4,30.12,NNE,23,3.8,4.6,46,0.00,,,0.00,WUHU216HW,2013-07-31 16:32:00,
2013-07-31 10:38:00,72.1,48.9,30.12,NE,45,6.9,6.9,44,0.00,,,0.00,WUHU216HW,2013-07-31 16:38:00,
2013-07-31 10:43:00,72.1,48.9,30.12,NE,45,7.1,7.6,44,0.00,,,0.00,WUHU216HW,2013-07-31 16:43:00,
2013-07-31 10:48:00,72.3,48.4,30.12,NE,45,3.3,7.6,43,0.00,,,0.00,WUHU216HW,2013-07-31 16:48:00,
2013-07-31 10:53:00,72.5,48.6,30.12,NE,45,7.3,7.6,43,0.00,,,0.00,WUHU216HW,2013-07-31 16:53:00,
2013-07-31 10:58:00,73.2,48.6,30.12,NNE,23,2.6,7.3,42,0.00,,,0.00,WUHU216HW,2013-07-31 16:58:00,
2013-07-31 11:03:00,73.5,48.4,30.12,ENE,68,2.0,7.1,41,0.00,,,0.00,WUHU216HW,2013-07-31 17:03:00,
2013-07-31 11:08:00,73.7,47.9,30.12,NE,45,7.1,7.3,40,0.00,,,0.00,WUHU216HW,2013-07-31 17:08:00,
2013-07-31 11:13:00,73.9,48.1,30.12,NNE,23,8.2,8.2,40,0.00,,,0.00,WUHU216HW,2013-07-31 17:13:00,
2013-07-31 11:18:00,74.1,47.5,30.12,NE,45,5.5,8.2,39,0.00,,,0.00,WUHU216HW,2013-07-31 17:18:00,
2013-07-31 11:23:00,74.1,47.5,30.12,NE,45,7.6,7.8,39,0.00,,,0.00,WUHU216HW,2013-07-31 17:23:00,
2013-07-31 11:28:00,74.3,47.8,30.12,NNE,23,2.2,7.8,39,0.00,,,0.00,WUHU216HW,2013-07-31 17:28:00,
2013-07-31 11:33:00,75.0,47.6,30.12,NNE,23,4.2,7.3,38,0.00,,,0.00,WUHU216HW,2013-07-31 17:33:00,
2013-07-31 11:38:00,75.7,48.2,30.12,NNE,23,5.5,9.1,38,0.00,,,0.00,WUHU216HW,2013-07-31 17:38:00,
2013-07-31 11:43:00,75.9,46.9,30.11,NNE,23,4.6,9.1,36,0.00,,,0.00,WUHU216HW,2013-07-31 17:43:00,
2013-07-31 11:48:00,75.9,46.7,30.11,North,0,2.2,8.0,36,0.00,,,0.00,WUHU216HW,2013-07-31 17:48:00,
2013-07-31 11:54:00,75.9,45.3,30.12,NE,45,9.8,9.8,34,0.00,,,0.00,WUHU216HW,2013-07-31 17:54:00,
2013-07-31 11:59:00,75.9,43.1,30.11,NE,45,2.4,9.8,31,0.00,,,0.00,WUHU216HW,2013-07-31 17:59:00,
2013-07-31 12:04:00,75.9,44.6,30.11,NNE,23,3.8,8.0,33,0.00,,,0.00,WUHU216HW,2013-07-31 18:04:00,
2013-07-31 12:09:00,75.9,45.3,30.11,NNE,23,4.2,8.0,34,0.00,,,0.00,WUHU216HW,2013-07-31 18:09:00,
2013-07-31 12:14:00,76.6,46.0,30.11,ENE,68,8.2,10.0,34,0.00,,,0.00,WUHU216HW,2013-07-31 18:14:00,
2013-07-31 12:19:00,76.2,44.9,30.10,North,0,7.1,10.0,33,0.00,,,0.00,WUHU216HW,2013-07-31 18:19:00,
2013-07-31 12:24:00,77.0,45.6,30.11,NNE,23,8.5,10.0,33,0.00,,,0.00,WUHU216HW,2013-07-31 18:24:00,
2013-07-31 12:29:00,77.5,46.0,30.10,NE,45,4.0,8.5,33,0.00,,,0.00,WUHU216HW,2013-07-31 18:29:00,
2013-07-31 12:34:00,77.5,46.0,30.10,NNE,23,7.6,8.2,33,0.00,,,0.00,WUHU216HW,2013-07-31 18:34:00,
2013-07-31 12:39:00,77.5,45.2,30.09,ENE,68,2.0,8.2,32,0.00,,,0.00,WUHU216HW,2013-07-31 18:39:00,
2013-07-31 12:44:00,78.4,46.0,30.09,NNE,23,5.3,7.8,32,0.00,,,0.00,WUHU216HW,2013-07-31 18:44:00,
2013-07-31 12:49:00,78.6,46.1,30.09,North,0,8.2,8.9,32,0.00,,,0.00,WUHU216HW,2013-07-31 18:49:00,
2013-07-31 12:54:00,78.9,45.7,30.09,North,0,2.9,8.9,31,0.00,,,0.00,WUHU216HW,2013-07-31 18:54:00,
2013-07-31 12:59:00,78.9,43.8,30.09,NE,45,3.3,8.9,29,0.00,,,0.00,WUHU216HW,2013-07-31 18:59:00,
2013-07-31 13:04:00,79.3,43.1,30.09,East,90,4.4,4.9,28,0.00,,,0.00,WUHU216HW,2013-07-31 19:04:00,
2013-07-31 13:10:00,78.9,42.8,30.09,North,0,5.1,5.1,28,0.00,,,0.00,WUHU216HW,2013-07-31 19:10:00,
2013-07-31 13:15:00,79.5,41.2,30.09,East,90,0.0,5.1,26,0.00,,,0.00,WUHU216HW,2013-07-31 19:15:00,
2013-07-31 13:20:00,79.5,42.2,30.09,ENE,68,2.6,4.2,27,0.00,,,0.00,WUHU216HW,2013-07-31 19:20:00,
2013-07-31 13:25:00,79.5,42.2,30.09,NNE,23,2.9,8.0,27,0.00,,,0.00,WUHU216HW,2013-07-31 19:25:00,
2013-07-31 13:30:00,79.8,41.5,30.09,North,0,1.5,7.6,26,0.00,,,0.00,WUHU216HW,2013-07-31 19:30:00,
2013-07-31 13:35:00,80.4,42.0,30.08,North,0,4.2,6.4,26,0.00,,,0.00,WUHU216HW,2013-07-31 19:35:00,
2013-07-31 13:40:00,80.4,42.0,30.08,NE,45,7.1,7.1,26,0.00,,,0.00,WUHU216HW,2013-07-31 19:40:00,
2013-07-31 13:45:00,79.7,41.4,30.08,SE,135,4.9,7.1,26,0.00,,,0.00,WUHU216HW,2013-07-31 19:45:00,
2013-07-31 13:50:00,79.5,41.2,30.08,NNW,338,4.4,5.5,26,0.00,,,0.00,WUHU216HW,2013-07-31 19:50:00,
2013-07-31 13:55:00,79.7,41.2,30.08,NNE,23,4.9,4.9,26,0.00,,,0.00,WUHU216HW,2013-07-31 19:55:00,
2013-07-31 14:00:00,79.7,41.4,30.08,NE,45,0.0,6.7,26,0.00,,,0.00,WUHU216HW,2013-07-31 20:00:00,
2013-07-31 14:05:00,79.3,41.0,30.08,ESE,113,0.0,6.7,26,0.00,,,0.00,WUHU216HW,2013-07-31 20:05:00,
2013-07-31 14:10:00,79.5,41.2,30.08,NE,45,3.8,6.2,26,0.00,,,0.00,WUHU216HW,2013-07-31 20:10:00,
2013-07-31 14:15:00,79.5,41.2,30.07,ESE,113,1.1,6.2,26,0.00,,,0.00,WUHU216HW,2013-07-31 20:15:00,
2013-07-31 14:20:00,79.5,41.2,30.07,NNE,23,0.0,5.5,26,0.00,,,0.00,WUHU216HW,2013-07-31 20:20:00,
2013-07-31 14:25:00,79.8,41.7,30.07,NNE,23,10.7,10.7,26,0.00,,,0.00,WUHU216HW,2013-07-31 20:25:00,
2013-07-31 14:30:00,80.2,41.9,30.07,NNE,23,6.4,10.7,26,0.00,,,0.00,WUHU216HW,2013-07-31 20:30:00,
2013-07-31 14:35:00,80.7,42.3,30.07,NE,45,4.0,6.9,26,0.00,,,0.00,WUHU216HW,2013-07-31 20:35:00,
2013-07-31 14:40:00,81.3,40.7,30.07,ENE,68,3.5,9.8,24,0.00,,,0.00,WUHU216HW,2013-07-31 20:40:00,
2013-07-31 14:45:00,81.6,41.0,30.07,NE,45,4.0,9.8,24,0.00,,,0.00,WUHU216HW,2013-07-31 20:45:00,
2013-07-31 14:50:00,81.3,40.7,30.07,NE,45,6.2,10.2,24,0.00,,,0.00,WUHU216HW,2013-07-31 20:50:00,
2013-07-31 14:55:00,80.9,40.4,30.07,NNE,23,3.5,10.2,24,0.00,,,0.00,WUHU216HW,2013-07-31 20:55:00,
2013-07-31 15:00:00,80.9,40.4,30.06,NE,45,2.4,8.9,24,0.00,,,0.00,WUHU216HW,2013-07-31 21:00:00,
2013-07-31 15:05:00,80.7,40.2,30.06,ENE,68,1.5,8.0,24,0.00,,,0.00,WUHU216HW,2013-07-31 21:05:00,
2013-07-31 15:11:00,80.4,39.9,30.06,SE,135,1.1,6.7,24,0.00,,,0.00,WUHU216HW,2013-07-31 21:11:00,
2013-07-31 15:16:00,80.7,40.2,30.06,NNE,23,2.6,8.9,24,0.00,,,0.00,WUHU216HW,2013-07-31 21:16:00,
2013-07-31 15:21:00,81.1,40.5,30.06,NNE,23,2.6,8.9,24,0.00,,,0.00,WUHU216HW,2013-07-31 21:21:00,
2013-07-31 15:26:00,81.1,39.5,30.05,NE,45,4.2,9.1,23,0.00,,,0.00,WUHU216HW,2013-07-31 21:26:00,
2013-07-31 15:31:00,81.3,40.7,30.05,SW,225,0.0,9.1,24,0.00,,,0.00,WUHU216HW,2013-07-31 21:31:00,
2013-07-31 15:36:00,82.0,40.2,30.05,NE,45,5.3,10.5,23,0.00,,,0.00,WUHU216HW,2013-07-31 21:36:00,
2013-07-31 15:41:00,82.0,40.2,30.05,East,90,5.3,11.1,23,0.00,,,0.00,WUHU216HW,2013-07-31 21:41:00,
2013-07-31 15:46:00,81.6,39.9,30.05,NE,45,9.1,11.1,23,0.00,,,0.00,WUHU216HW,2013-07-31 21:46:00,
2013-07-31 15:51:00,81.6,39.9,30.05,NNE,23,4.6,10.7,23,0.00,,,0.00,WUHU216HW,2013-07-31 21:51:00,
2013-07-31 15:56:00,82.2,39.3,30.04,North,0,4.9,10.7,22,0.00,,,0.00,WUHU216HW,2013-07-31 21:56:00,
2013-07-31 16:01:00,82.5,40.6,30.04,ESE,113,2.0,6.0,23,0.00,,,0.00,WUHU216HW,2013-07-31 22:01:00,
2013-07-31 16:06:00,82.5,39.6,30.04,NE,45,3.8,7.8,22,0.00,,,0.00,WUHU216HW,2013-07-31 22:06:00,
2013-07-31 16:11:00,82.0,40.2,30.04,NE,45,7.8,7.8,23,0.00,,,0.00,WUHU216HW,2013-07-31 22:11:00,
2013-07-31 16:17:00,81.6,39.9,30.04,ENE,68,0.0,8.0,23,0.00,,,0.00,WUHU216HW,2013-07-31 22:17:00,
2013-07-31 16:22:00,81.6,39.9,30.03,ESE,113,1.3,8.0,23,0.00,,,0.00,WUHU216HW,2013-07-31 22:22:00,
2013-07-31 16:27:00,82.5,40.6,30.03,NE,45,5.3,5.3,23,0.00,,,0.00,WUHU216HW,2013-07-31 22:27:00,
2013-07-31 16:32:00,82.7,39.7,30.03,NE,45,6.0,6.2,22,0.00,,,0.00,WUHU216HW,2013-07-31 22:32:00,
2013-07-31 16:37:00,82.5,40.6,30.03,NNE,23,3.8,11.8,23,0.00,,,0.00,WUHU216HW,2013-07-31 22:37:00,
2013-07-31 16:42:00,82.2,40.3,30.03,ENE,68,4.4,11.8,23,0.00,,,0.00,WUHU216HW,2013-07-31 22:42:00,
2013-07-31 16:47:00,82.0,40.2,30.02,ENE,68,2.4,8.5,23,0.00,,,0.00,WUHU216HW,2013-07-31 22:47:00,
2013-07-31 16:52:00,81.5,39.8,30.03,NNE,23,0.0,7.6,23,0.00,,,0.00,WUHU216HW,2013-07-31 22:52:00,
2013-07-31 16:57:00,82.2,39.3,30.02,NNE,23,5.1,11.8,22,0.00,,,0.00,WUHU216HW,2013-07-31 22:57:00,
2013-07-31 17:02:00,82.5,40.6,30.02,NE,45,8.0,11.8,23,0.00,,,0.00,WUHU216HW,2013-07-31 23:02:00,
2013-07-31 17:07:00,82.9,39.9,30.02,NNE,23,8.7,8.7,22,0.00,,,0.00,WUHU216HW,2013-07-31 23:07:00,
2013-07-31 17:13:00,82.9,39.9,30.02,ESE,113,0.0,8.9,22,0.00,,,0.00,WUHU216HW,2013-07-31 23:13:00,
2013-07-31 17:18:00,83.1,40.0,30.01,North,0,4.9,8.9,22,0.00,,,0.00,WUHU216HW,2013-07-31 23:18:00,
2013-07-31 17:23:00,83.3,40.2,30.02,ENE,68,0.0,6.4,22,0.00,,,0.00,WUHU216HW,2013-07-31 23:23:00,
2013-07-31 17:28:00,83.3,40.3,30.02,ENE,68,4.4,6.7,22,0.00,,,0.00,WUHU216HW,2013-07-31 23:28:00,
2013-07-31 17:33:00,83.1,40.0,30.01,NE,45,6.0,6.7,22,0.00,,,0.00,WUHU216HW,2013-07-31 23:33:00,
2013-07-31 17:38:00,83.4,40.3,30.01,NE,45,4.2,9.1,22,0.00,,,0.00,WUHU216HW,2013-07-31 23:38:00,
2013-07-31 17:43:00,83.8,39.5,30.01,NE,45,7.8,9.1,21,0.00,,,0.00,WUHU216HW,2013-07-31 23:43:00,
2013-07-31 17:48:00,83.4,39.1,30.01,ESE,113,0.0,9.1,21,0.00,,,0.00,WUHU216HW,2013-07-31 23:48:00,
2013-07-31 17:53:00,84.0,39.7,30.01,SE,135,6.0,6.7,21,0.00,,,0.00,WUHU216HW,2013-07-31 23:53:00,
2013-07-31 17:58:00,84.3,40.0,30.01,NE,45,7.3,7.3,21,0.00,,,0.00,WUHU216HW,2013-07-31 23:58:00,
2013-07-31 18:03:00,84.7,40.3,30.01,WNW,293,0.0,7.3,21,0.00,,,0.00,WUHU216HW,2013-08-01 00:03:00,
2013-07-31 18:08:00,84.0,40.8,30.01,NE,45,4.0,6.0,22,0.00,,,0.00,WUHU216HW,2013-08-01 00:08:00,
2013-07-31 18:13:00,83.8,40.6,30.01,ESE,113,5.8,7.1,22,0.00,,,0.00,WUHU216HW,2013-08-01 00:13:00,
2013-07-31 18:18:00,83.1,40.0,30.00,ENE,68,4.2,7.1,22,0.00,,,0.00,WUHU216HW,2013-08-01 00:18:00,
2013-07-31 18:23:00,82.5,40.6,30.00,NE,45,3.1,6.0,23,0.00,,,0.00,WUHU216HW,2013-08-01 00:23:00,
2013-07-31 18:28:00,82.2,40.3,30.00,ESE,113,5.3,5.3,23,0.00,,,0.00,WUHU216HW,2013-08-01 00:28:00,
2013-07-31 18:34:00,82.0,41.2,30.00,NNE,23,2.4,5.3,24,0.00,,,0.00,WUHU216HW,2013-08-01 00:34:00,
2013-07-31 18:39:00,81.8,41.1,29.99,NE,45,6.7,6.7,24,0.00,,,0.00,WUHU216HW,2013-08-01 00:39:00,
2013-07-31 18:44:00,81.6,41.0,29.99,NE,45,3.3,6.9,24,0.00,,,0.00,WUHU216HW,2013-08-01 00:44:00,
2013-07-31 18:49:00,81.3,40.7,29.99,NNE,23,5.1,7.1,24,0.00,,,0.00,WUHU216HW,2013-08-01 00:49:00,
2013-07-31 18:54:00,80.7,41.3,29.99,NE,45,4.6,7.1,25,0.00,,,0.00,WUHU216HW,2013-08-01 00:54:00,
2013-07-31 18:59:00,80.4,41.1,29.99,NE,45,4.4,4.6,25,0.00,,,0.00,WUHU216HW,2013-08-01 00:59:00,
2013-07-31 19:04:00,80.0,40.5,29.99,NE,45,0.0,5.8,25,0.00,,,0.00,WUHU216HW,2013-08-01 01:04:00,
2013-07-31 19:09:00,79.5,41.2,29.99,South,180,0.0,5.8,26,0.00,,,0.00,WUHU216HW,2013-08-01 01:09:00,
2013-07-31 19:14:00,79.3,41.0,29.99,NE,45,5.8,5.8,26,0.00,,,0.00,WUHU216HW,2013-08-01 01:14:00,
2013-07-31 19:19:00,78.9,40.7,29.99,East,90,3.3,5.8,26,0.00,,,0.00,WUHU216HW,2013-08-01 01:19:00,
2013-07-31 19:24:00,78.6,40.4,29.99,ENE,68,0.6,3.8,26,0.00,,,0.00,WUHU216HW,2013-08-01 01:24:00,
2013-07-31 19:29:00,78.4,40.3,29.98,ENE,68,0.0,3.8,26,0.00,,,0.00,WUHU216HW,2013-08-01 01:29:00,
2013-07-31 19:34:00,78.0,40.0,29.98,ENE,68,4.2,4.2,26,0.00,,,0.00,WUHU216HW,2013-08-01 01:34:00,
2013-07-31 19:40:00,77.7,40.7,29.99,East,90,0.0,4.2,27,0.00,,,0.00,WUHU216HW,2013-08-01 01:40:00,
2013-07-31 19:45:00,77.5,40.6,29.99,ENE,68,2.6,2.6,27,0.00,,,0.00,WUHU216HW,2013-08-01 01:45:00,
2013-07-31 19:50:00,77.1,40.3,29.99,ENE,68,2.6,2.6,27,0.00,,,0.00,WUHU216HW,2013-08-01 01:50:00,
2013-07-31 19:55:00,76.8,40.0,29.98,ENE,68,0.0,2.6,27,0.00,,,0.00,WUHU216HW,2013-08-01 01:55:00,
2013-07-31 20:00:00,76.4,39.7,29.99,East,90,1.1,1.1,27,0.00,,,0.00,WUHU216HW,2013-08-01 02:00:00,
2013-07-31 20:05:00,76.1,40.4,29.99,ENE,68,0.0,3.8,28,0.00,,,0.00,WUHU216HW,2013-08-01 02:05:00,
2013-07-31 20:10:00,75.9,40.2,29.99,East,90,0.0,3.8,28,0.00,,,0.00,WUHU216HW,2013-08-01 02:10:00,
2013-07-31 20:15:00,75.7,39.1,29.99,East,90,0.0,2.4,27,0.00,,,0.00,WUHU216HW,2013-08-01 02:15:00,
2013-07-31 20:20:00,75.7,40.1,29.99,East,90,0.0,2.4,28,0.00,,,0.00,WUHU216HW,2013-08-01 02:20:00,
2013-07-31 20:25:00,75.3,39.8,29.99,East,90,2.9,2.9,28,0.00,,,0.00,WUHU216HW,2013-08-01 02:25:00,
2013-07-31 20:30:00,75.3,39.8,29.99,ESE,113,2.0,2.9,28,0.00,,,0.00,WUHU216HW,2013-08-01 02:30:00,
2013-07-31 20:35:00,75.0,39.5,29.99,ESE,113,0.0,2.0,28,0.00,,,0.00,WUHU216HW,2013-08-01 02:35:00,
2013-07-31 20:40:00,74.8,39.3,29.99,ESE,113,0.0,0.0,28,0.00,,,0.00,WUHU216HW,2013-08-01 02:40:00,
2013-07-31 20:45:00,74.6,39.1,29.99,ESE,113,0.0,0.0,28,0.00,,,0.00,WUHU216HW,2013-08-01 02:45:00,
2013-07-31 20:51:00,74.4,39.0,29.99,ESE,113,0.0,0.0,28,0.00,,,0.00,WUHU216HW,2013-08-01 02:51:00,
2013-07-31 20:56:00,74.3,38.0,29.99,ENE,68,0.0,2.0,27,0.00,,,0.00,WUHU216HW,2013-08-01 02:56:00,
2013-07-31 21:01:00,74.1,36.6,29.99,ENE,68,0.0,2.0,26,0.00,,,0.00,WUHU216HW,2013-08-01 03:01:00,
2013-07-31 21:06:00,73.9,36.5,29.99,ENE,68,0.0,0.0,26,0.00,,,0.00,WUHU216HW,2013-08-01 03:06:00,
2013-07-31 21:11:00,73.7,36.3,29.99,ENE,68,0.0,0.0,26,0.00,,,0.00,WUHU216HW,2013-08-01 03:11:00,
2013-07-31 21:16:00,73.5,36.2,29.99,ESE,113,0.0,0.0,26,0.00,,,0.00,WUHU216HW,2013-08-01 03:16:00,
2013-07-31 21:21:00,73.2,35.9,29.99,ESE,113,0.0,0.0,26,0.00,,,0.00,WUHU216HW,2013-08-01 03:21:00,
2013-07-31 21:26:00,73.2,35.9,29.99,ESE,113,0.0,0.0,26,0.00,,,0.00,WUHU216HW,2013-08-01 03:26:00,
2013-07-31 21:31:00,73.0,35.7,29.99,ESE,113,0.0,0.0,26,0.00,,,0.00,WUHU216HW,2013-08-01 03:31:00,
2013-07-31 21:36:00,72.6,35.4,29.99,ESE,113,0.0,0.0,26,0.00,,,0.00,WUHU216HW,2013-08-01 03:36:00,
2013-07-31 21:42:00,73.0,34.8,30.00,SE,135,4.0,4.0,25,0.00,,,0.00,WUHU216HW,2013-08-01 03:42:00,
2013-07-31 21:47:00,74.1,35.5,30.00,SSE,158,4.9,4.9,25,0.00,,,0.00,WUHU216HW,2013-08-01 03:47:00,
2013-07-31 21:52:00,74.4,35.9,30.01,South,180,11.4,12.0,25,0.00,,,0.00,WUHU216HW,2013-08-01 03:52:00,
2013-07-31 21:57:00,75.0,35.4,30.01,SSE,158,6.4,16.1,24,0.00,,,0.00,WUHU216HW,2013-08-01 03:57:00,
2013-07-31 22:01:00,75.5,35.8,30.01,SE,135,0.0,16.1,24,0.00,,,0.00,WUHU216HW,2013-08-01 04:01:00,
2013-07-31 22:02:00,75.7,36.0,30.01,SSE,158,0.8,16.1,24,0.00,,,0.00,WUHU216HW,2013-08-01 04:02:00,
2013-07-31 22:03:00,75.7,36.0,30.01,ESE,113,2.0,16.1,24,0.00,,,0.00,WUHU216HW,2013-08-01 04:03:00,
2013-07-31 22:04:00,75.7,36.0,30.02,SE,135,3.3,16.1,24,0.00,,,0.00,WUHU216HW,2013-08-01 04:04:00,
2013-07-31 22:09:00,75.7,36.0,30.02,ESE,113,0.0,5.3,24,0.00,,,0.00,WUHU216HW,2013-08-01 04:09:00,
2013-07-31 22:14:00,75.5,35.8,30.02,ESE,113,2.6,4.9,24,0.00,,,0.00,WUHU216HW,2013-08-01 04:14:00,
2013-07-31 22:19:00,75.3,35.7,30.02,ESE,113,5.5,6.0,24,0.00,,,0.00,WUHU216HW,2013-08-01 04:19:00,
2013-07-31 22:24:00,75.3,36.7,30.02,East,90,0.0,8.2,25,0.00,,,0.00,WUHU216HW,2013-08-01 04:24:00,
2013-07-31 22:29:00,75.0,36.4,30.02,SE,135,0.0,8.2,25,0.00,,,0.00,WUHU216HW,2013-08-01 04:29:00,
2013-07-31 22:34:00,75.0,38.4,30.02,ESE,113,4.9,6.7,27,0.00,,,0.00,WUHU216HW,2013-08-01 04:34:00,
2013-07-31 22:39:00,74.3,38.8,30.02,SE,135,4.9,5.3,28,0.00,,,0.00,WUHU216HW,2013-08-01 04:39:00,
2013-07-31 22:44:00,73.9,38.5,30.02,ESE,113,11.4,11.4,28,0.00,,,0.00,WUHU216HW,2013-08-01 04:44:00,
2013-07-31 22:49:00,73.9,38.5,30.02,South,180,2.2,11.4,28,0.00,,,0.00,WUHU216HW,2013-08-01 04:49:00,
2013-07-31 22:54:00,73.5,39.2,30.02,NE,45,0.0,6.4,29,0.00,,,0.00,WUHU216HW,2013-08-01 04:54:00,
2013-07-31 22:59:00,73.4,39.0,30.02,SSE,158,2.2,6.4,29,0.00,,,0.00,WUHU216HW,2013-08-01 04:59:00,
2013-07-31 23:04:00,73.2,39.9,30.02,ENE,68,1.5,6.0,30,0.00,,,0.00,WUHU216HW,2013-08-01 05:04:00,
2013-07-31 23:09:00,73.0,39.8,30.01,East,90,6.7,6.7,30,0.00,,,0.00,WUHU216HW,2013-08-01 05:09:00,
2013-07-31 23:14:00,72.8,40.4,30.01,ESE,113,3.3,6.7,31,0.00,,,0.00,WUHU216HW,2013-08-01 05:14:00,
2013-07-31 23:19:00,72.6,40.2,30.02,ESE,113,0.0,4.9,31,0.00,,,0.00,WUHU216HW,2013-08-01 05:19:00,
2013-07-31 23:24:00,72.5,40.1,30.02,SE,135,4.9,4.9,31,0.00,,,0.00,WUHU216HW,2013-08-01 05:24:00,
2013-07-31 23:30:00,72.8,40.4,30.02,ESE,113,0.0,4.9,31,0.00,,,0.00,WUHU216HW,2013-08-01 05:30:00,
2013-07-31 23:35:00,72.8,41.1,30.02,SE,135,3.1,4.9,32,0.00,,,0.00,WUHU216HW,2013-08-01 05:35:00,
2013-07-31 23:40:00,72.1,43.5,30.02,SSE,158,4.4,6.7,36,0.00,,,0.00,WUHU216HW,2013-08-01 05:40:00,
2013-07-31 23:45:00,71.2,44.9,30.02,SSW,203,4.0,6.7,39,0.00,,,0.00,WUHU216HW,2013-08-01 05:45:00,
2013-07-31 23:50:00,70.5,45.2,30.01,SSE,158,0.0,10.0,40,0.00,,,0.00,WUHU216HW,2013-08-01 05:50:00,
2013-07-31 23:55:00,68.5,46.2,29.99,East,90,4.2,10.0,45,0.00,,,0.00,WUHU216HW,2013-08-01 05:55:00,